createdAt,value
2022-08-24T00:01:55.519Z,0.20
2022-08-24T00:04:21.919Z,0.10
2022-08-24T00:06:49.890Z,0.13
2022-08-24T00:09:16.921Z,0.13
2022-08-24T00:11:43.232Z,0.20
2022-08-24T00:14:11.440Z,0.10
2022-08-24T00:16:37.854Z,0.00
2022-08-24T00:19:04.558Z,0.00
2022-08-24T00:21:30.984Z,0.10
2022-08-24T00:23:57.416Z,0.10
2022-08-24T00:26:28.629Z,0.10
2022-08-24T00:31:22.444Z,0.10
2022-08-24T00:33:48.899Z,0.10
2022-08-24T00:36:15.346Z,0.00
2022-08-24T00:38:42.410Z,0.10
2022-08-24T00:41:08.750Z,0.10
2022-08-24T00:43:35.636Z,0.20
2022-08-24T00:46:10.784Z,0.20
2022-08-24T00:48:39.557Z,0.10
2022-08-24T00:51:14.097Z,0.20
2022-08-24T00:53:44.919Z,0.13
2022-08-24T00:56:31.296Z,0.20
2022-08-24T00:59:00.256Z,0.20
2022-08-24T01:01:27.371Z,0.05
2022-08-24T01:03:57.074Z,0.20
2022-08-24T01:06:23.690Z,0.20
2022-08-24T01:08:56.308Z,0.22
2022-08-24T01:11:24.691Z,0.20
2022-08-24T01:13:52.829Z,0.20
2022-08-24T01:16:39.678Z,0.17
2022-08-24T01:19:16.956Z,0.20
2022-08-24T01:21:46.482Z,0.10
2022-08-24T01:24:13.936Z,0.22
2022-08-24T01:26:42.515Z,0.10
2022-08-24T01:29:11.684Z,0.10
2022-08-24T01:31:38.442Z,0.20
2022-08-24T01:34:05.133Z,0.13
2022-08-24T01:36:33.563Z,0.20
2022-08-24T01:39:10.069Z,0.10
2022-08-24T01:41:37.106Z,0.30
2022-08-24T01:44:03.510Z,0.20
2022-08-24T01:46:29.999Z,0.25
2022-08-24T01:48:58.273Z,0.20
2022-08-24T01:51:25.679Z,0.32
2022-08-24T01:53:52.009Z,0.20
2022-08-24T01:56:18.509Z,0.10
2022-08-24T01:58:45.919Z,0.10
2022-08-24T02:01:12.645Z,0.20
2022-08-24T02:03:39.426Z,0.30
2022-08-24T02:06:06.383Z,0.20
2022-08-24T02:08:34.388Z,0.20
2022-08-24T02:11:00.854Z,0.20
2022-08-24T02:13:27.737Z,0.20
2022-08-24T02:15:54.142Z,0.30
2022-08-24T02:18:20.728Z,0.25
2022-08-24T02:20:47.086Z,0.40
2022-08-24T02:23:13.455Z,0.20
2022-08-24T02:25:40.054Z,0.10
2022-08-24T02:28:06.390Z,0.20
2022-08-24T02:30:32.840Z,0.10
2022-08-24T02:32:59.992Z,0.10
2022-08-24T02:35:27.101Z,0.00
2022-08-24T02:37:53.425Z,0.20
2022-08-24T02:40:20.113Z,0.40
2022-08-24T02:42:46.543Z,0.38
2022-08-24T02:45:12.891Z,0.20
2022-08-24T02:47:39.612Z,0.20
2022-08-24T02:50:07.700Z,0.20
2022-08-24T02:52:35.813Z,0.15
2022-08-24T02:55:02.168Z,0.20
2022-08-24T02:57:28.489Z,0.22
2022-08-24T02:59:54.811Z,0.20
2022-08-24T03:02:21.412Z,0.40
2022-08-24T03:04:49.349Z,0.55
2022-08-24T03:07:15.941Z,0.40
2022-08-24T03:09:42.306Z,0.40
2022-08-24T03:12:08.716Z,0.30
2022-08-24T03:14:35.810Z,0.20
2022-08-24T03:17:02.369Z,0.20
2022-08-24T03:19:28.794Z,0.40
2022-08-24T03:21:56.298Z,0.30
2022-08-24T03:24:23.426Z,0.20
2022-08-24T03:26:50.222Z,0.22
2022-08-24T03:29:16.785Z,0.30
2022-08-24T03:31:43.521Z,0.52
2022-08-24T03:34:13.415Z,0.30
2022-08-24T03:36:46.645Z,0.32
2022-08-24T03:39:14.034Z,0.32
2022-08-24T03:41:40.488Z,0.30
2022-08-24T03:44:06.905Z,0.40
2022-08-24T03:46:36.724Z,0.20
2022-08-24T03:49:04.409Z,0.50
2022-08-24T03:51:30.962Z,0.40
2022-08-24T03:53:58.610Z,0.30
2022-08-24T03:56:25.116Z,0.20
2022-08-24T03:58:51.685Z,0.20
2022-08-24T04:01:18.289Z,0.22
2022-08-24T04:03:46.064Z,0.30
2022-08-24T04:06:13.554Z,0.30
2022-08-24T04:08:41.650Z,0.25
2022-08-24T04:11:12.598Z,0.30
2022-08-24T04:13:39.176Z,0.57
2022-08-24T04:16:06.961Z,0.60
2022-08-24T04:18:33.657Z,0.28
2022-08-24T04:21:00.204Z,0.30
2022-08-24T04:23:29.024Z,0.30
2022-08-24T04:26:13.537Z,0.20
2022-08-24T04:28:39.867Z,0.20
2022-08-24T04:31:06.660Z,0.10
2022-08-24T04:33:33.114Z,0.20
2022-08-24T04:35:59.455Z,0.20
2022-08-24T04:38:26.725Z,0.10
2022-08-24T04:40:53.847Z,0.22
2022-08-24T04:43:20.208Z,0.13
2022-08-24T04:45:48.023Z,0.20
2022-08-24T04:48:15.866Z,0.10
2022-08-24T04:50:42.814Z,0.10
2022-08-24T04:53:09.937Z,0.10
2022-08-24T04:55:46.885Z,0.10
2022-08-24T04:58:14.078Z,0.10
2022-08-24T05:00:40.860Z,0.10
2022-08-24T05:03:07.554Z,0.10
2022-08-24T05:05:34.602Z,0.10
2022-08-24T05:08:00.990Z,0.10
2022-08-24T05:10:33.562Z,0.10
2022-08-24T05:13:00.339Z,0.10
2022-08-24T05:15:26.752Z,0.10
2022-08-24T05:17:53.147Z,0.20
2022-08-24T05:20:20.162Z,0.20
2022-08-24T05:22:46.502Z,0.30
2022-08-24T05:25:12.874Z,0.30
2022-08-24T05:27:39.197Z,0.22
2022-08-24T05:30:05.973Z,0.20
2022-08-24T05:32:32.759Z,0.20
2022-08-24T05:34:59.925Z,0.20
2022-08-24T05:37:26.389Z,0.20
2022-08-24T05:39:52.904Z,0.20
2022-08-24T05:42:19.409Z,0.32
2022-08-24T05:44:45.806Z,0.40
2022-08-24T05:47:12.317Z,0.50
2022-08-24T05:49:41.479Z,0.30
2022-08-24T05:52:08.834Z,0.50
2022-08-24T05:54:35.234Z,0.32
2022-08-24T05:57:04.835Z,0.20
2022-08-24T05:59:31.725Z,0.20
2022-08-24T06:01:58.536Z,0.30
2022-08-24T06:04:25.652Z,0.13
2022-08-24T06:06:52.688Z,0.10
2022-08-24T06:09:19.044Z,0.10
2022-08-24T06:11:47.501Z,0.20
2022-08-24T06:14:15.414Z,0.50
2022-08-24T06:16:43.540Z,0.32
2022-08-24T06:19:10.834Z,0.40
2022-08-24T06:21:37.968Z,0.35
2022-08-24T06:24:05.404Z,0.70
2022-08-24T06:26:50.623Z,0.50
2022-08-24T06:29:17.353Z,0.35
2022-08-24T06:31:45.049Z,0.30
2022-08-24T06:34:14.013Z,0.40
2022-08-24T06:36:40.874Z,0.30
2022-08-24T06:39:08.846Z,0.25
2022-08-24T06:41:37.229Z,0.20
2022-08-24T06:44:03.734Z,0.20
2022-08-24T06:46:32.756Z,0.20
2022-08-24T06:48:59.820Z,0.13
2022-08-24T06:51:26.334Z,0.30
2022-08-24T06:53:56.033Z,0.50
2022-08-24T06:56:22.394Z,0.30
2022-08-24T06:58:48.739Z,0.30
2022-08-24T07:01:16.845Z,0.30
2022-08-24T07:03:44.110Z,0.32
2022-08-24T07:06:10.993Z,0.20
2022-08-24T07:08:37.407Z,0.73
2022-08-24T07:11:04.365Z,1.10
2022-08-24T07:13:34.369Z,0.50
2022-08-24T07:16:00.875Z,0.40
2022-08-24T07:18:27.339Z,0.20
2022-08-24T07:20:53.875Z,0.17
2022-08-24T07:23:20.912Z,0.20
2022-08-24T07:25:49.769Z,0.22
2022-08-24T07:28:17.920Z,0.30
2022-08-24T07:30:54.247Z,0.20
2022-08-24T07:33:20.817Z,0.20
2022-08-24T07:35:47.195Z,0.20
2022-08-24T07:38:13.911Z,0.20
2022-08-24T07:41:05.057Z,0.20
2022-08-24T07:43:26.886Z,0.30
2022-08-24T07:45:53.598Z,0.30
2022-08-24T07:48:20.010Z,0.35
2022-08-24T07:50:46.733Z,0.70
2022-08-24T07:53:16.257Z,0.73
2022-08-24T07:58:12.645Z,0.70
2022-08-24T08:00:39.014Z,0.60
2022-08-24T08:03:06.406Z,0.20
2022-08-24T08:05:37.923Z,0.30
2022-08-24T08:08:04.487Z,0.93
2022-08-24T08:10:31.094Z,0.95
2022-08-24T08:12:57.486Z,0.50
2022-08-24T08:15:24.295Z,0.50
2022-08-24T08:17:55.940Z,0.55
2022-08-24T08:20:22.586Z,0.60
2022-08-24T08:23:07.532Z,0.30
2022-08-24T08:25:34.855Z,0.70
2022-08-24T08:28:07.975Z,1.35
2022-08-24T08:30:46.049Z,1.10
2022-08-24T08:33:13.773Z,0.80
2022-08-24T08:35:40.501Z,0.90
2022-08-24T08:38:09.063Z,0.60
2022-08-24T08:40:48.192Z,0.50
2022-08-24T08:43:23.872Z,0.60
2022-08-24T08:46:03.979Z,0.60
2022-08-24T08:48:32.017Z,0.70
2022-08-24T08:51:11.702Z,0.50
2022-08-24T08:53:56.841Z,0.65
2022-08-24T08:56:23.715Z,0.60
2022-08-24T08:58:59.444Z,0.30
2022-08-24T09:01:33.041Z,0.28
2022-08-24T09:04:00.198Z,0.40
2022-08-24T09:06:32.451Z,0.40
2022-08-24T09:09:14.060Z,0.60
2022-08-24T09:11:48.331Z,0.50
2022-08-24T09:14:17.554Z,0.90
2022-08-24T09:16:50.044Z,0.82
2022-08-24T09:19:19.688Z,1.00
2022-08-24T09:21:49.176Z,0.55
2022-08-24T09:24:32.118Z,0.70
2022-08-24T09:27:10.244Z,0.60
2022-08-24T09:29:54.815Z,0.90
2022-08-24T09:32:36.440Z,0.80
2022-08-24T09:35:03.450Z,0.50
2022-08-24T09:37:48.324Z,0.90
2022-08-24T09:40:20.682Z,0.70
2022-08-24T09:42:53.028Z,0.60
2022-08-24T09:45:30.309Z,0.80
2022-08-24T09:48:09.509Z,1.20
2022-08-24T09:50:54.438Z,0.98
2022-08-24T09:53:29.754Z,0.63
2022-08-24T09:56:15.526Z,0.60
2022-08-24T09:59:00.820Z,1.00
2022-08-24T10:01:27.274Z,0.90
2022-08-24T10:04:02.950Z,0.90
2022-08-24T10:06:38.094Z,0.70
2022-08-24T10:09:14.068Z,0.43
2022-08-24T10:11:49.847Z,0.50
2022-08-24T10:14:16.143Z,0.30
2022-08-24T10:16:51.854Z,0.50
2022-08-24T10:19:41.805Z,1.00
2022-08-24T10:24:43.464Z,0.90
2022-08-24T10:27:28.502Z,1.50
2022-08-24T10:30:10.033Z,0.70
2022-08-24T10:32:39.693Z,0.60
2022-08-24T10:35:08.102Z,0.95
2022-08-24T10:37:48.174Z,0.80
2022-08-24T10:40:25.354Z,1.55
2022-08-24T10:43:29.025Z,1.52
2022-08-24T10:46:10.741Z,0.80
2022-08-24T10:48:40.114Z,0.75
2022-08-24T10:51:25.246Z,0.70
2022-08-24T10:53:53.090Z,1.13
2022-08-24T10:56:21.536Z,1.83
2022-08-24T10:58:50.980Z,0.75
2022-08-24T11:01:19.649Z,0.60
2022-08-24T11:04:07.023Z,1.08
2022-08-24T11:06:36.718Z,1.38
2022-08-24T11:09:05.798Z,1.20
2022-08-24T11:11:34.424Z,1.45
2022-08-24T11:14:06.460Z,1.40
2022-08-24T11:16:39.513Z,1.20
2022-08-24T11:19:13.367Z,1.10
2022-08-24T11:21:45.148Z,1.30
2022-08-24T11:24:11.451Z,1.80
2022-08-24T11:26:53.791Z,1.30
2022-08-24T11:29:23.177Z,1.25
2022-08-24T11:31:50.828Z,1.35
2022-08-24T11:34:18.775Z,1.25
2022-08-24T11:36:45.237Z,1.92
2022-08-24T11:39:17.747Z,1.90
2022-08-24T11:41:55.874Z,1.55
2022-08-24T11:44:34.328Z,1.52
2022-08-24T11:47:08.130Z,1.10
2022-08-24T11:49:42.524Z,0.60
2022-08-24T11:52:15.896Z,1.02
2022-08-24T11:54:51.110Z,1.77
2022-08-24T11:57:35.570Z,1.83
2022-08-24T12:00:13.664Z,1.88
2022-08-24T12:02:44.547Z,0.80
2022-08-24T12:05:23.155Z,0.93
2022-08-24T12:07:59.218Z,0.80
2022-08-24T12:10:44.208Z,0.60
2022-08-24T12:13:15.640Z,1.10
2022-08-24T12:15:51.943Z,1.30
2022-08-24T12:18:24.402Z,1.00
2022-08-24T12:20:51.005Z,0.70
2022-08-24T12:23:37.869Z,0.90
2022-08-24T12:26:09.693Z,0.85
2022-08-24T12:28:41.373Z,0.60
2022-08-24T12:31:11.720Z,1.00
2022-08-24T12:33:39.969Z,0.60
2022-08-24T12:36:28.421Z,0.30
2022-08-24T12:39:06.913Z,0.60
2022-08-24T12:41:34.772Z,0.50
2022-08-24T12:44:09.808Z,1.27
2022-08-24T12:46:36.914Z,0.60
2022-08-24T12:49:07.136Z,0.50
2022-08-24T12:51:33.522Z,0.40
2022-08-24T12:54:06.124Z,0.50
2022-08-24T12:56:47.555Z,0.70
2022-08-24T12:59:14.161Z,0.80
2022-08-24T13:01:44.020Z,0.73
2022-08-24T13:04:29.420Z,0.50
2022-08-24T13:07:05.435Z,0.77
2022-08-24T13:09:31.850Z,0.47
2022-08-24T13:11:59.360Z,0.40
2022-08-24T13:14:27.612Z,0.45
2022-08-24T13:16:57.127Z,0.30
2022-08-24T13:19:23.440Z,0.30
2022-08-24T13:21:54.555Z,0.40
2022-08-24T13:24:30.343Z,0.30
2022-08-24T13:27:16.675Z,0.20
2022-08-24T13:29:45.624Z,0.13
2022-08-24T13:32:22.590Z,1.10
2022-08-24T13:34:51.468Z,0.95
2022-08-24T13:37:22.292Z,1.42
2022-08-24T13:40:00.971Z,1.60
2022-08-24T13:42:39.803Z,0.98
2022-08-24T13:45:15.331Z,1.10
2022-08-24T13:47:52.485Z,0.40
2022-08-24T13:50:38.054Z,1.20
2022-08-24T13:53:10.260Z,1.40
2022-08-24T13:55:44.068Z,1.25
2022-08-24T13:58:33.798Z,1.63
2022-08-24T14:01:07.069Z,1.70
2022-08-24T14:03:33.446Z,0.95
2022-08-24T14:06:08.559Z,0.60
2022-08-24T14:08:36.233Z,0.70
2022-08-24T14:11:10.810Z,0.77
2022-08-24T14:13:47.818Z,0.80
2022-08-24T14:16:33.010Z,1.75
2022-08-24T14:19:02.269Z,0.90
2022-08-24T14:21:58.789Z,0.70
2022-08-24T14:24:34.078Z,0.85
2022-08-24T14:27:03.006Z,0.80
2022-08-24T14:29:32.103Z,0.60
2022-08-24T14:32:11.567Z,1.25
2022-08-24T14:34:40.850Z,1.00
2022-08-24T14:37:13.133Z,1.20
2022-08-24T14:39:39.461Z,1.10
2022-08-24T14:42:05.803Z,0.60
2022-08-24T14:44:38.033Z,0.50
2022-08-24T14:47:04.458Z,0.30
2022-08-24T14:49:36.584Z,0.30
2022-08-24T14:52:08.840Z,0.30
2022-08-24T14:54:38.339Z,0.60
2022-08-24T14:57:10.574Z,0.47
2022-08-24T14:59:37.878Z,1.13
2022-08-24T15:02:16.529Z,0.90
2022-08-24T15:04:45.488Z,1.10
2022-08-24T15:07:20.729Z,0.60
2022-08-24T15:09:47.223Z,0.50
2022-08-24T15:12:32.305Z,0.60
2022-08-24T15:15:02.225Z,0.38
2022-08-24T15:17:35.739Z,0.40
2022-08-24T15:20:06.561Z,0.73
2022-08-24T15:22:36.533Z,0.90
2022-08-24T15:25:06.327Z,0.90
2022-08-24T15:27:54.504Z,0.60
2022-08-24T15:30:23.055Z,0.30
2022-08-24T15:32:51.921Z,0.47
2022-08-24T15:35:25.866Z,0.50
2022-08-24T15:37:52.392Z,0.40
2022-08-24T15:40:24.819Z,0.60
2022-08-24T15:42:51.437Z,0.70
2022-08-24T15:45:18.161Z,0.50
2022-08-24T15:47:49.785Z,0.80
2022-08-24T15:50:24.750Z,0.90
2022-08-24T15:52:55.549Z,0.90
2022-08-24T15:55:28.001Z,1.02
2022-08-24T15:57:55.831Z,0.95
2022-08-24T16:00:44.591Z,1.02
2022-08-24T16:03:29.915Z,0.50
2022-08-24T16:05:56.660Z,0.30
2022-08-24T16:08:23.663Z,0.20
2022-08-24T16:10:52.042Z,0.30
2022-08-24T16:13:18.510Z,0.30
2022-08-24T16:15:47.841Z,0.30
2022-08-24T16:18:14.594Z,0.63
2022-08-24T16:20:41.295Z,0.60
2022-08-24T16:23:10.496Z,0.35
2022-08-24T16:25:42.748Z,0.30
2022-08-24T16:28:32.760Z,0.30
2022-08-24T16:31:00.817Z,0.30
2022-08-24T16:33:39.149Z,0.40
2022-08-24T16:36:09.756Z,0.22
2022-08-24T16:38:36.957Z,0.57
2022-08-24T16:41:06.277Z,0.40
2022-08-24T16:43:33.739Z,0.50
2022-08-24T16:46:00.905Z,0.80
2022-08-24T16:48:27.940Z,0.50
2022-08-24T16:50:56.238Z,0.70
2022-08-24T16:53:23.195Z,0.90
2022-08-24T16:55:49.725Z,1.00
2022-08-24T16:58:16.234Z,0.80
2022-08-24T17:00:43.029Z,0.70
2022-08-24T17:03:12.894Z,0.90
2022-08-24T17:05:41.174Z,0.57
2022-08-24T17:08:07.816Z,0.50
2022-08-24T17:10:37.842Z,0.50
2022-08-24T17:13:04.385Z,0.40
2022-08-24T17:15:30.864Z,0.30
2022-08-24T17:18:02.709Z,0.60
2022-08-24T17:20:29.441Z,0.40
2022-08-24T17:22:56.122Z,0.30
2022-08-24T17:25:22.950Z,0.80
2022-08-24T17:27:49.520Z,0.40
2022-08-24T17:30:20.298Z,0.82
2022-08-24T17:32:48.067Z,0.40
2022-08-24T17:35:15.194Z,0.47
2022-08-24T17:37:41.890Z,0.30
2022-08-24T17:40:11.310Z,0.28
2022-08-24T17:42:50.938Z,0.28
2022-08-24T17:45:18.001Z,0.68
2022-08-24T17:47:44.350Z,0.40
2022-08-24T17:50:12.401Z,0.50
2022-08-24T17:52:39.561Z,0.30
2022-08-24T17:55:06.880Z,0.20
2022-08-24T17:57:33.656Z,0.32
2022-08-24T18:00:00.009Z,0.30
2022-08-24T18:02:26.364Z,0.30
2022-08-24T18:04:52.802Z,0.40
2022-08-24T18:07:42.247Z,0.77
2022-08-24T18:10:08.873Z,0.40
2022-08-24T18:12:35.306Z,0.30
2022-08-24T18:15:01.653Z,0.20
2022-08-24T18:17:37.219Z,0.20
2022-08-24T18:20:04.277Z,0.10
2022-08-24T18:22:30.616Z,0.20
2022-08-24T18:24:57.056Z,0.10
2022-08-24T18:27:28.593Z,0.05
2022-08-24T18:29:58.641Z,0.30
2022-08-24T18:32:28.650Z,0.20
2022-08-24T18:34:57.777Z,0.30
2022-08-24T18:37:24.397Z,0.10
2022-08-24T18:39:51.025Z,0.30
2022-08-24T18:42:17.624Z,0.20
2022-08-24T18:44:43.999Z,0.10
2022-08-24T18:47:10.506Z,0.30
2022-08-24T18:49:37.538Z,0.40
2022-08-24T18:52:06.400Z,0.20
2022-08-24T18:54:35.244Z,0.40
2022-08-24T18:57:01.680Z,0.50
2022-08-24T18:59:28.136Z,0.75
2022-08-24T19:02:13.210Z,0.35
2022-08-24T19:04:45.558Z,0.20
2022-08-24T19:07:12.195Z,0.40
2022-08-24T19:09:38.744Z,0.30
2022-08-24T19:12:05.465Z,0.30
2022-08-24T19:14:32.662Z,0.10
2022-08-24T19:16:58.988Z,0.50
2022-08-24T19:19:25.460Z,0.57
2022-08-24T19:21:52.304Z,0.55
2022-08-24T19:24:20.840Z,0.70
2022-08-24T19:26:47.280Z,0.30
2022-08-24T19:29:14.951Z,0.20
2022-08-24T19:31:41.363Z,0.20
2022-08-24T19:34:07.893Z,0.22
2022-08-24T19:36:34.231Z,0.10
2022-08-24T19:39:00.587Z,0.30
2022-08-24T19:41:36.382Z,0.40
2022-08-24T19:44:27.338Z,0.20
2022-08-24T19:46:54.437Z,0.20
2022-08-24T19:49:20.854Z,0.50
2022-08-24T19:51:47.208Z,0.40
2022-08-24T19:54:13.680Z,0.30
2022-08-24T19:56:40.021Z,0.30
2022-08-24T19:59:08.336Z,0.65
2022-08-24T20:01:37.367Z,0.50
2022-08-24T20:04:06.264Z,0.25
2022-08-24T20:06:34.754Z,0.25
2022-08-24T20:09:01.712Z,0.15
2022-08-24T20:11:28.030Z,0.15
2022-08-24T20:13:54.526Z,0.20
2022-08-24T20:16:22.232Z,0.10
2022-08-24T20:18:48.900Z,0.10
2022-08-24T20:21:16.013Z,0.10
2022-08-24T20:23:42.604Z,0.20
2022-08-24T20:26:09.896Z,0.20
2022-08-24T20:28:40.974Z,0.10
2022-08-24T20:31:07.913Z,0.10
2022-08-24T20:33:34.350Z,0.13
2022-08-24T20:36:00.800Z,0.20
2022-08-24T20:38:31.761Z,0.20
2022-08-24T20:40:58.391Z,0.10
2022-08-24T20:43:24.713Z,0.20
2022-08-24T20:45:51.944Z,0.10
2022-08-24T20:48:24.597Z,0.10
2022-08-24T20:50:51.034Z,0.10
2022-08-24T20:53:17.372Z,0.40
2022-08-24T20:55:43.801Z,0.17
2022-08-24T20:58:10.303Z,0.20
2022-08-24T21:00:37.972Z,0.10
2022-08-24T21:03:04.535Z,0.20
2022-08-24T21:05:30.953Z,0.20
2022-08-24T21:07:58.019Z,0.10
2022-08-24T21:10:26.548Z,0.30
2022-08-24T21:12:53.673Z,0.50
2022-08-24T21:15:22.390Z,0.20
2022-08-24T21:17:49.067Z,0.20
2022-08-24T21:20:15.457Z,0.10
2022-08-24T21:22:42.369Z,0.20
2022-08-24T21:25:09.614Z,0.20
2022-08-24T21:27:38.376Z,0.20
2022-08-24T21:30:06.120Z,0.10
2022-08-24T21:32:51.346Z,0.20
2022-08-24T21:35:17.755Z,0.20
2022-08-24T21:37:44.141Z,0.10
2022-08-24T21:40:10.970Z,0.10
2022-08-24T21:42:37.425Z,0.20
2022-08-24T21:45:04.846Z,0.10
2022-08-24T21:47:31.419Z,0.10
2022-08-24T21:49:58.160Z,0.10
2022-08-24T21:52:24.631Z,0.10
2022-08-24T21:54:52.056Z,0.30
2022-08-24T21:57:18.444Z,0.10
2022-08-24T21:59:44.764Z,0.15
2022-08-24T22:02:11.305Z,0.13
2022-08-24T22:04:43.135Z,0.10
2022-08-24T22:07:10.412Z,0.10
2022-08-24T22:09:36.739Z,0.17
2022-08-24T22:12:05.549Z,0.20
2022-08-24T22:14:32.054Z,0.20
2022-08-24T22:16:58.381Z,0.32
2022-08-24T22:19:24.761Z,0.30
2022-08-24T22:21:51.193Z,0.30
2022-08-24T22:24:17.682Z,0.25
2022-08-24T22:26:44.111Z,0.30
2022-08-24T22:29:11.140Z,0.20
2022-08-24T22:31:39.223Z,0.20
2022-08-24T22:34:07.671Z,0.30
2022-08-24T22:36:34.189Z,0.40
2022-08-24T22:39:00.608Z,0.20
2022-08-24T22:41:27.637Z,0.20
2022-08-24T22:44:13.144Z,0.30
2022-08-24T22:46:39.843Z,0.20
2022-08-24T22:49:07.480Z,0.20
2022-08-24T22:51:34.090Z,0.40
2022-08-24T22:54:00.654Z,0.60
2022-08-24T22:56:28.842Z,0.70
2022-08-24T22:58:55.986Z,0.73
2022-08-24T23:01:23.717Z,0.90
2022-08-24T23:03:50.899Z,1.30
2022-08-24T23:06:17.411Z,1.40
2022-08-24T23:08:43.847Z,1.70
2022-08-24T23:11:10.718Z,2.03
2022-08-24T23:13:40.053Z,1.33
2022-08-24T23:16:07.881Z,1.90
2022-08-24T23:18:52.787Z,2.10
2022-08-24T23:21:19.362Z,2.50
2022-08-24T23:23:46.028Z,1.83
2022-08-24T23:26:14.560Z,1.70
2022-08-24T23:28:44.965Z,1.40
2022-08-24T23:31:18.374Z,0.90
2022-08-24T23:33:45.007Z,0.80
2022-08-24T23:36:12.902Z,0.70
2022-08-24T23:38:39.790Z,0.45
2022-08-24T23:41:07.176Z,0.50
2022-08-24T23:43:34.080Z,0.40
2022-08-24T23:46:00.714Z,0.30
2022-08-24T23:48:27.354Z,0.40
2022-08-24T23:50:53.782Z,0.60
2022-08-24T23:53:20.348Z,0.30
2022-08-24T23:55:47.010Z,0.25
2022-08-24T23:58:14.221Z,0.13
